Time;durP1;ratioP1;P1;durP2;ratioP2;P2;SDS_P1;SDS_P2;PMS_P1;PMS_P2;Temp;Humidity;BMP_temperature;BMP_pressure;BME280_temperature;BME280_humidity;BME280_pressure;Samples;Min_cycle;Max_cycle;Signal;HPM_P1;HPM_P2
2021/03/20 00:00:34;;;;;;;63.78;32.72;;;3.80;99.90;;;;;;5054998;28;20048;-50
2021/03/20 00:03:00;;;;;;;67.82;32.80;;;3.90;99.90;;;;;;5012351;28;20121;-50
2021/03/20 00:05:26;;;;;;;63.55;32.20;;;4.10;99.90;;;;;;5012899;28;20164;-52
2021/03/20 00:07:53;;;;;;;55.92;28.52;;;4.20;99.90;;;;;;5008695;28;20066;-50
2021/03/20 00:10:22;;;;;;;56.25;27.33;;;4.30;99.90;;;;;;4993048;28;20038;-48
2021/03/20 00:12:50;;;;;;;60.42;29.52;;;4.40;99.90;;;;;;4976532;28;20042;-49
2021/03/20 00:15:22;;;;;;;54.40;28.08;;;4.40;99.90;;;;;;4993112;28;20034;-50
2021/03/20 00:17:49;;;;;;;55.13;26.50;;;4.50;99.90;;;;;;4981571;28;20046;-50
2021/03/20 00:20:18;;;;;;;47.70;24.83;;;4.50;99.90;;;;;;4973599;28;20030;-49
2021/03/20 00:22:44;;;;;;;51.72;24.73;;;4.50;99.90;;;;;;4953894;29;20187;-51
2021/03/20 00:25:11;;;;;;;44.35;23.17;;;4.50;99.90;;;;;;4953723;29;20125;-47
2021/03/20 00:27:37;;;;;;;43.50;21.85;;;4.50;99.90;;;;;;4891088;29;20039;-49
2021/03/20 00:30:05;;;;;;;38.50;20.75;;;4.50;99.90;;;;;;4921736;29;20051;-49
2021/03/20 00:32:30;;;;;;;37.75;19.40;;;4.50;99.90;;;;;;4881055;29;20051;-48
2021/03/20 00:34:56;;;;;;;33.05;17.63;;;4.50;99.90;;;;;;4913910;29;20036;-49
2021/03/20 00:37:22;;;;;;;33.88;18.20;;;4.50;99.90;;;;;;4899970;29;20044;-52
2021/03/20 00:39:48;;;;;;;26.50;16.40;;;4.50;99.90;;;;;;4915751;29;20028;-48
2021/03/20 00:42:14;;;;;;;27.55;15.98;;;4.40;99.90;;;;;;4915578;29;20523;-52
2021/03/20 00:44:41;;;;;;;26.55;15.75;;;4.50;99.90;;;;;;4921414;29;20036;-52
2021/03/20 00:47:07;;;;;;;25.50;14.15;;;4.50;99.90;;;;;;4901934;29;20487;-48
2021/03/20 00:49:33;;;;;;;25.30;13.88;;;4.50;99.90;;;;;;4902914;29;20068;-50
2021/03/20 00:51:58;;;;;;;23.08;12.90;;;4.50;99.90;;;;;;4934413;29;20476;-49
2021/03/20 00:54:24;;;;;;;25.58;13.40;;;4.50;99.90;;;;;;4934016;29;20040;-51
2021/03/20 00:56:50;;;;;;;20.40;12.15;;;4.50;99.90;;;;;;4934620;29;20043;-47
2021/03/20 00:59:16;;;;;;;23.50;12.25;;;4.50;99.90;;;;;;4907725;28;20051;-52
2021/03/20 01:01:42;;;;;;;22.45;12.95;;;4.40;99.90;;;;;;4972582;28;20027;-49
2021/03/20 01:04:08;;;;;;;21.60;11.90;;;4.40;99.90;;;;;;4924813;28;20099;-48
2021/03/20 01:06:34;;;;;;;20.40;11.60;;;4.40;99.90;;;;;;4924296;28;20042;-52
2021/03/20 01:09:00;;;;;;;20.52;11.73;;;4.40;99.90;;;;;;4978913;28;20034;-48
2021/03/20 01:11:28;;;;;;;21.10;11.80;;;4.30;99.90;;;;;;5033853;28;20746;-49
2021/03/20 01:13:55;;;;;;;16.90;9.68;;;4.30;99.90;;;;;;5033556;28;20433;-50
2021/03/20 01:16:21;;;;;;;17.05;9.85;;;4.30;99.90;;;;;;5033189;28;20032;-49
2021/03/20 01:18:47;;;;;;;17.48;9.55;;;4.20;99.90;;;;;;5052537;28;20056;-47
2021/03/20 01:21:12;;;;;;;16.65;9.90;;;4.20;99.90;;;;;;5053466;28;20029;-50
2021/03/20 01:23:38;;;;;;;17.83;10.50;;;4.30;99.90;;;;;;5053384;28;20028;-51
2021/03/20 01:26:05;;;;;;;18.88;11.05;;;4.20;99.90;;;;;;5053060;28;20276;-47
2021/03/20 01:28:33;;;;;;;18.08;10.00;;;4.20;99.90;;;;;;5053164;28;20079;-49
2021/03/20 01:30:59;;;;;;;18.65;11.10;;;4.20;99.90;;;;;;5052860;28;20029;-48
2021/03/20 01:33:26;;;;;;;18.15;10.18;;;4.30;99.90;;;;;;5053400;28;20037;-48
2021/03/20 01:35:52;;;;;;;20.40;10.88;;;4.30;99.90;;;;;;5053317;28;20025;-51
2021/03/20 01:38:18;;;;;;;18.20;9.82;;;4.30;99.90;;;;;;5052973;28;20107;-48
2021/03/20 01:40:54;;;;;;;17.70;10.05;;;4.30;99.90;;;;;;5053224;28;20061;-52
2021/03/20 01:43:22;;;;;;;16.30;9.95;;;4.30;99.90;;;;;;5050405;28;20029;-52
2021/03/20 01:45:48;;;;;;;20.35;10.52;;;4.30;99.90;;;;;;5002519;28;20042;-48
2021/03/20 01:48:28;;;;;;;16.58;10.60;;;4.40;99.90;;;;;;5033100;28;20038;-46
2021/03/20 01:51:00;;;;;;;20.80;11.13;;;4.40;99.90;;;;;;5033162;28;20120;-49
2021/03/20 01:53:38;;;;;;;18.70;10.07;;;4.40;99.90;;;;;;5030349;28;20381;-51
2021/03/20 01:56:08;;;;;;;18.90;9.50;;;4.30;99.90;;;;;;5033112;28;20029;-49
2021/03/20 01:58:37;;;;;;;16.65;10.57;;;4.30;99.90;;;;;;5036791;28;20022;-50
2021/03/20 02:01:11;;;;;;;16.10;9.65;;;4.30;99.90;;;;;;5036894;28;20154;-50
2021/03/20 02:03:37;;;;;;;17.95;10.55;;;4.10;99.90;;;;;;5037301;28;20471;-52
2021/03/20 02:06:04;;;;;;;16.98;10.07;;;4.20;99.90;;;;;;5037065;28;20029;-49
2021/03/20 02:08:30;;;;;;;19.08;10.52;;;4.10;99.90;;;;;;4969208;28;20057;-48
2021/03/20 02:11:14;;;;;;;18.65;9.90;;;4.10;99.90;;;;;;5037019;28;20026;-51
2021/03/20 02:13:44;;;;;;;19.17;10.35;;;4.10;99.90;;;;;;5037075;28;20025;-48
2021/03/20 02:16:19;;;;;;;16.48;9.20;;;4.10;99.90;;;;;;5036658;28;20029;-50
2021/03/20 02:18:55;;;;;;;16.80;8.93;;;4.10;99.90;;;;;;5036709;28;20045;-48
2021/03/20 02:21:29;;;;;;;16.67;9.98;;;4.10;99.90;;;;;;5036747;28;20022;-52
2021/03/20 02:24:16;;;;;;;14.48;9.60;;;4.10;99.90;;;;;;5036580;28;20036;-47
2021/03/20 02:27:22;;;;;;;15.60;9.45;;;4.10;99.90;;;;;;5018173;28;20037;-48
2021/03/20 02:30:06;;;;;;;15.57;9.82;;;4.10;99.90;;;;;;5036583;28;20036;-50
2021/03/20 02:32:51;;;;;;;24.30;12.77;;;4.10;99.90;;;;;;5036632;28;20540;-50
2021/03/20 02:35:17;;;;;;;19.90;12.32;;;4.10;99.90;;;;;;5036443;28;20491;-51
2021/03/20 02:38:04;;;;;;;21.15;11.45;;;4.10;99.90;;;;;;5036359;28;20076;-52
2021/03/20 02:40:36;;;;;;;15.50;10.50;;;4.10;99.90;;;;;;5019385;28;20053;-49
2021/03/20 02:43:13;;;;;;;16.48;10.05;;;4.10;99.90;;;;;;5036589;28;20028;-47
2021/03/20 02:45:42;;;;;;;20.65;11.20;;;4.00;99.90;;;;;;5018786;28;20098;-47
2021/03/20 02:48:26;;;;;;;18.42;9.98;;;4.00;99.90;;;;;;5036276;28;20025;-52
2021/03/20 02:51:10;;;;;;;22.08;12.77;;;3.90;99.90;;;;;;5036159;28;20055;-47
2021/03/20 02:54:09;;;;;;;18.98;11.85;;;3.80;99.90;;;;;;5036205;28;20041;-49
2021/03/20 02:56:46;;;;;;;19.05;11.32;;;3.70;99.90;;;;;;5035645;28;20045;-50
2021/03/20 02:59:14;;;;;;;29.48;14.93;;;3.60;99.90;;;;;;5036017;28;20057;-51
2021/03/20 03:01:43;;;;;;;23.45;12.90;;;2.80;99.90;;;;;;5017570;28;20064;-49
2021/03/20 03:04:13;;;;;;;27.23;13.52;;;2.70;99.90;;;;;;5036064;28;20025;-50
2021/03/20 03:07:20;;;;;;;24.52;12.65;;;2.90;99.90;;;;;;5036093;28;20368;-51
2021/03/20 03:09:53;;;;;;;24.67;13.10;;;2.40;99.90;;;;;;4954651;28;20619;-51
2021/03/20 03:12:23;;;;;;;22.10;10.40;;;;;;;;;;4955499;29;20043;-50
2021/03/20 03:14:55;;;;;;;16.42;10.85;;;1.80;99.90;;;;;;4955436;29;20035;-51
2021/03/20 03:17:23;;;;;;;20.95;10.60;;;1.60;99.90;;;;;;4955208;29;20422;-48
2021/03/20 03:19:54;;;;;;;15.70;10.20;;;;;;;;;;4955495;29;20027;-52
2021/03/20 03:22:26;;;;;;;15.63;8.82;;;1.40;99.90;;;;;;4955276;29;20027;-52
2021/03/20 03:24:54;;;;;;;15.98;9.25;;;;;;;;;;4955347;29;20027;-48
2021/03/20 03:27:22;;;;;;;14.52;9.43;;;1.00;99.90;;;;;;4955370;29;20051;-50
2021/03/20 03:29:48;;;;;;;17.27;8.07;;;1.20;99.90;;;;;;4955245;29;20148;-50
2021/03/20 03:32:34;;;;;;;16.00;8.18;;;;;;;;;;4955105;29;20059;-48
2021/03/20 03:35:13;;;;;;;14.60;8.43;;;0.90;99.90;;;;;;4955128;29;20541;-49
2021/03/20 03:37:48;;;;;;;14.13;8.02;;;0.60;99.90;;;;;;4916552;29;20043;-48
2021/03/20 03:40:22;;;;;;;18.90;9.55;;;0.60;99.90;;;;;;4917087;29;20128;-47
2021/03/20 03:42:49;;;;;;;15.10;8.77;;;0.50;99.90;;;;;;4916867;29;20078;-51
2021/03/20 03:45:18;;;;;;;17.25;9.43;;;0.60;99.90;;;;;;4916903;29;20028;-50
2021/03/20 03:47:44;;;;;;;15.82;10.05;;;0.70;99.90;;;;;;4968865;28;20054;-50
2021/03/20 03:50:18;;;;;;;18.42;9.40;;;0.90;99.90;;;;;;4974087;28;20050;-52
2021/03/20 03:52:44;;;;;;;14.13;9.60;;;1.10;99.90;;;;;;4973763;28;20035;-50
2021/03/20 03:55:10;;;;;;;19.25;11.02;;;1.60;99.90;;;;;;4941920;28;20030;-50
2021/03/20 03:58:05;;;;;;;19.45;10.75;;;1.80;99.90;;;;;;4974086;28;20046;-52
2021/03/20 04:00:36;;;;;;;18.17;9.93;;;1.40;99.90;;;;;;4973957;28;20035;-50
2021/03/20 04:03:20;;;;;;;17.63;10.00;;;1.10;99.90;;;;;;4974178;28;20038;-50
2021/03/20 04:05:50;;;;;;;18.42;11.18;;;1.10;99.90;;;;;;4973844;28;20367;-49
2021/03/20 04:08:28;;;;;;;18.33;10.48;;;1.00;99.90;;;;;;4974322;28;20099;-51
2021/03/20 04:11:02;;;;;;;17.63;10.23;;;0.90;99.90;;;;;;5034738;28;20731;-49
2021/03/20 04:14:01;;;;;;;16.08;9.55;;;1.10;99.90;;;;;;5034466;28;20056;-48
2021/03/20 04:16:43;;;;;;;17.67;9.70;;;1.20;99.90;;;;;;5034652;28;20468;-52
2021/03/20 04:19:15;;;;;;;14.70;8.63;;;1.20;99.90;;;;;;5034812;28;20045;-50
2021/03/20 04:21:43;;;;;;;14.63;8.90;;;1.40;99.90;;;;;;5034049;28;20030;-52
2021/03/20 04:24:09;;;;;;;15.10;9.20;;;1.20;99.90;;;;;;5034614;28;20029;-48
2021/03/20 04:27:02;;;;;;;18.17;9.38;;;1.20;99.90;;;;;;5034402;28;20503;-48
2021/03/20 04:29:38;;;;;;;16.85;8.90;;;1.30;99.90;;;;;;5034154;28;20029;-49
2021/03/20 04:32:06;;;;;;;14.02;8.50;;;1.50;99.90;;;;;;5034366;28;20037;-50
2021/03/20 04:34:51;;;;;;;16.63;10.07;;;1.80;99.90;;;;;;5034491;28;20368;-48
2021/03/20 04:37:19;;;;;;;16.92;9.45;;;;;;;;;;5034084;28;20025;-51
2021/03/20 04:39:51;;;;;;;16.27;9.75;;;2.30;99.90;;;;;;5034554;28;20037;-51
2021/03/20 04:42:32;;;;;;;18.33;10.25;;;2.20;99.90;;;;;;5030967;28;20021;-51
2021/03/20 04:45:03;;;;;;;20.52;10.60;;;2.00;99.90;;;;;;4999261;28;20029;-55
2021/03/20 04:47:34;;;;;;;14.98;8.55;;;2.00;99.90;;;;;;5034044;28;20033;-52
2021/03/20 04:50:07;;;;;;;14.38;8.10;;;1.90;99.90;;;;;;5033921;28;20032;-52
2021/03/20 04:52:42;;;;;;;14.27;7.75;;;2.00;99.90;;;;;;4999055;28;20034;-49
2021/03/20 04:55:09;;;;;;;12.40;7.40;;;;;;;;;;5033934;28;20427;-50
2021/03/20 04:57:45;;;;;;;10.32;7.13;;;2.30;99.90;;;;;;5033617;28;20083;-48
2021/03/20 05:00:17;;;;;;;51.80;22.38;;;2.40;99.90;;;;;;5003552;28;20044;-49
2021/03/20 05:02:52;;;;;;;;;;;2.50;99.90;;;;;;5054028;28;20033;-49
2021/03/20 05:05:28;;;;;;;19.10;10.35;;;;;;;;;;5053451;28;19936;-50
2021/03/20 05:07:54;;;;;;;19.60;10.27;;;;;;;;;;5053831;28;20122;-50
2021/03/20 05:10:38;;;;;;;18.17;10.77;;;2.80;99.90;;;;;;5053796;28;20037;-51
2021/03/20 05:13:10;;;;;;;15.30;9.32;;;2.80;99.90;;;;;;5053690;28;20036;-50
2021/03/20 05:15:36;;;;;;;15.30;8.45;;;2.60;99.90;;;;;;5053494;28;20033;-46
2021/03/20 05:18:02;;;;;;;15.07;9.15;;;;;;;;;;5001647;28;20047;-48
2021/03/20 05:20:28;;;;;;;13.35;7.65;;;;;;;;;;5053428;28;20047;-48
2021/03/20 05:22:54;;;;;;;13.27;8.20;;;3.10;99.90;;;;;;5053461;28;20031;-48
2021/03/20 05:25:24;;;;;;;12.93;7.03;;;3.20;99.90;;;;;;5053402;28;20033;-51
2021/03/20 05:27:50;;;;;;;12.85;7.00;;;3.10;99.90;;;;;;5018021;28;20435;-51
2021/03/20 05:30:17;;;;;;;11.55;7.70;;;2.90;99.90;;;;;;5053237;28;20082;-50
2021/03/20 05:32:43;;;;;;;9.57;6.40;;;2.50;99.90;;;;;;5001644;28;20055;-53
2021/03/20 05:35:19;;;;;;;12.27;7.45;;;1.90;99.90;;;;;;5053249;28;20033;-51
2021/03/20 05:37:44;;;;;;;41.35;19.45;;;1.90;99.90;;;;;;5046537;28;20044;-51
2021/03/20 05:40:36;;;;;;;35.22;18.00;;;2.50;99.90;;;;;;5034392;28;20369;-51
2021/03/20 05:43:22;;;;;;;26.00;13.45;;;;;;;;;;4952864;29;20035;-48
2021/03/20 05:46:09;;;;;;;16.38;9.30;;;3.20;99.90;;;;;;4953737;28;20411;-49
2021/03/20 05:49:09;;;;;;;16.70;9.57;;;3.40;99.90;;;;;;4955773;28;20125;-54
2021/03/20 05:51:45;;;;;;;17.70;10.48;;;;;;;;;;4972087;28;20038;-48
2021/03/20 05:54:11;;;;;;;34.53;19.67;;;3.80;99.90;;;;;;4972240;28;20049;-51
2021/03/20 05:57:26;;;;;;;23.80;13.75;;;3.90;99.90;;;;;;4972094;28;20027;-48
2021/03/20 06:00:13;;;;;;;26.83;13.60;;;4.00;99.90;;;;;;4858505;29;20041;-51
2021/03/20 06:03:04;;;;;;;31.30;16.13;;;4.10;99.90;;;;;;4856606;29;20124;-52
2021/03/20 06:05:43;;;;;;;32.30;17.92;;;4.20;99.90;;;;;;4856973;29;20045;-48
2021/03/20 06:08:34;;;;;;;40.17;21.52;;;4.40;99.90;;;;;;4858373;29;20559;-48
2021/03/20 06:11:08;;;;;;;51.08;28.33;;;4.70;99.90;;;;;;4858476;29;20053;-51
2021/03/20 06:13:59;;;;;;;41.20;20.70;;;4.80;99.90;;;;;;4858546;29;20144;-48
2021/03/20 06:16:32;;;;;;;36.38;17.67;;;5.10;99.90;;;;;;4858691;29;20177;-51
2021/03/20 06:19:25;;;;;;;26.63;14.85;;;5.20;99.90;;;;;;4860579;29;20050;-48
2021/03/20 06:22:31;;;;;;;24.85;13.52;;;5.20;99.90;;;;;;4877516;29;20123;-56
2021/03/20 06:25:17;;;;;;;20.42;11.57;;;5.20;99.90;;;;;;4846256;29;20049;-48
2021/03/20 06:27:51;;;;;;;17.30;9.82;;;5.30;99.90;;;;;;4877006;29;20037;-49
2021/03/20 06:30:38;;;;;;;18.10;10.30;;;5.40;99.90;;;;;;4875709;29;20050;-50
2021/03/20 06:33:25;;;;;;;15.35;8.90;;;5.50;99.90;;;;;;4876733;29;20112;-49
2021/03/20 06:36:11;;;;;;;17.48;9.63;;;5.60;99.90;;;;;;4913705;28;20092;-48
2021/03/20 06:38:57;;;;;;;16.20;8.68;;;5.80;99.90;;;;;;5012740;28;20018;-51
2021/03/20 06:41:55;;;;;;;15.02;8.90;;;5.90;99.90;;;;;;5019513;28;20029;-48
2021/03/20 06:44:39;;;;;;;16.92;8.52;;;6.00;99.90;;;;;;5014101;28;20068;-53
2021/03/20 06:47:15;;;;;;;14.88;9.68;;;5.70;99.90;;;;;;5006596;28;20069;-49
2021/03/20 06:50:00;;;;;;;19.83;9.95;;;5.50;99.90;;;;;;4982006;28;20406;-51
2021/03/20 06:52:28;;;;;;;19.15;11.88;;;5.60;99.90;;;;;;4986454;28;20029;-52
2021/03/20 06:54:58;;;;;;;22.83;13.50;;;5.70;99.90;;;;;;4994244;28;20038;-47
2021/03/20 06:57:24;;;;;;;21.20;14.02;;;;;;;;;;4987082;28;20490;-52
2021/03/20 06:59:55;;;;;;;27.90;14.88;;;6.30;99.90;;;;;;4960916;28;20363;-48
2021/03/20 07:02:45;;;;;;;22.67;13.10;;;6.30;99.90;;;;;;4983706;28;20120;-49
2021/03/20 07:05:11;;;;;;;24.77;14.48;;;6.30;99.90;;;;;;4980906;28;20042;-50
2021/03/20 07:07:43;;;;;;;23.15;13.90;;;;;;;;;;4983554;28;20039;-53
2021/03/20 07:10:29;;;;;;;23.50;13.93;;;;;;;;;;4981716;28;20486;-50
2021/03/20 07:13:16;;;;;;;19.85;13.68;;;;;;;;;;4993986;28;20035;-49
2021/03/20 07:15:42;;;;;;;21.13;12.50;;;7.90;99.90;;;;;;4988242;28;20054;-49
2021/03/20 07:18:24;;;;;;;24.70;14.25;;;7.70;99.90;;;;;;4951352;28;20061;-51
2021/03/20 07:20:50;;;;;;;22.55;14.82;;;8.10;99.90;;;;;;4989779;28;20034;-52
2021/03/20 07:23:16;;;;;;;39.17;20.75;;;7.90;99.90;;;;;;5018099;28;20365;-52
2021/03/20 07:25:53;;;;;;;82.93;36.55;;;7.20;99.90;;;;;;5025171;28;20030;-52
2021/03/20 07:28:23;;;;;;;29.48;18.42;;;7.00;99.90;;;;;;5015751;28;20366;-49
2021/03/20 07:30:58;;;;;;;36.75;22.73;;;6.90;99.90;;;;;;5034770;28;20112;-52
2021/03/20 07:33:25;;;;;;;26.92;16.67;;;7.50;99.90;;;;;;5034771;28;20527;-52
2021/03/20 07:35:50;;;;;;;94.10;48.90;;;7.40;99.90;;;;;;5023400;28;20061;-51
2021/03/20 07:38:34;;;;;;;29.63;18.50;;;8.10;99.90;;;;;;4965895;28;20509;-49
2021/03/20 07:41:09;;;;;;;23.10;14.68;;;7.90;99.90;;;;;;5016611;28;20132;-53
2021/03/20 07:43:35;;;;;;;109.03;48.10;;;7.90;99.90;;;;;;5024602;28;20076;-52
2021/03/20 07:46:15;;;;;;;29.95;18.48;;;;;;;;;;4984852;28;20129;-55
2021/03/20 07:48:43;;;;;;;63.38;32.95;;;8.50;99.90;;;;;;4991485;28;20030;-53
2021/03/20 07:51:13;;;;;;;31.65;20.33;;;;;;;;;;4993774;28;20089;-55
2021/03/20 07:53:42;;;;;;;60.80;35.60;;;;;;;;;;4993503;28;20035;-53
2021/03/20 07:56:14;;;;;;;32.35;18.27;;;;;;;;;;4981749;28;20046;-53
2021/03/20 07:58:51;;;;;;;29.60;17.80;;;9.90;99.90;;;;;;4957742;28;20150;-48
2021/03/20 08:01:23;;;;;;;31.50;18.08;;;;;;;;;;4973804;28;20462;-52
2021/03/20 08:04:02;;;;;;;30.55;18.60;;;;;;;;;;4973946;28;20066;-51
2021/03/20 08:06:31;;;;;;;32.20;19.63;;;10.20;99.90;;;;;;4980287;28;20484;-52
2021/03/20 08:09:22;;;;;;;32.67;19.33;;;9.60;99.90;;;;;;4982167;28;20070;-48
2021/03/20 08:12:00;;;;;;;31.23;19.15;;;9.60;99.90;;;;;;4983819;28;20034;-47
2021/03/20 08:14:49;;;;;;;33.40;19.90;;;;;;;;;;4973797;28;20540;-53
2021/03/20 08:17:17;;;;;;;33.72;18.52;;;;;;;;;;4946363;28;20082;-49
2021/03/20 08:19:43;;;;;;;26.65;16.45;;;11.20;99.90;;;;;;4972920;28;20034;-51
2021/03/20 08:22:35;;;;;;;30.42;18.92;;;11.00;99.90;;;;;;4973194;28;20054;-53
2021/03/20 08:25:16;;;;;;;28.63;17.33;;;11.50;99.90;;;;;;4971566;28;20157;-50
2021/03/20 08:28:13;;;;;;;25.08;16.42;;;12.10;99.90;;;;;;4973185;28;20026;-54
2021/03/20 08:30:51;;;;;;;25.42;15.90;;;12.20;99.90;;;;;;4972722;28;20031;-47
2021/03/20 08:33:17;;;;;;;29.00;16.50;;;;;;;;;;4972186;28;20081;-52
2021/03/20 08:35:54;;;;;;;28.92;17.80;;;12.20;99.90;;;;;;4972616;28;20039;-53
2021/03/20 08:38:45;;;;;;;28.33;16.20;;;12.30;99.90;;;;;;4971903;28;20031;-55
2021/03/20 08:41:12;;;;;;;29.10;17.50;;;;;;;;;;4972476;28;20047;-50
2021/03/20 08:44:01;;;;;;;26.85;16.38;;;12.90;99.90;;;;;;4973426;28;20046;-50
2021/03/20 08:46:27;;;;;;;20.33;14.27;;;;;;;;;;4972476;28;20097;-53
2021/03/20 08:49:01;;;;;;;23.45;15.13;;;;;;;;;;4972383;28;20105;-53
2021/03/20 08:51:40;;;;;;;23.83;14.57;;;12.70;99.90;;;;;;4972934;28;20031;-52
2021/03/20 08:54:09;;;;;;;19.02;13.60;;;;;;;;;;5000498;28;20052;-55
2021/03/20 08:56:44;;;;;;;25.63;16.05;;;11.50;99.90;;;;;;5053872;28;20537;-51
2021/03/20 08:59:17;;;;;;;25.25;17.08;;;11.80;99.90;;;;;;5053766;28;20017;-54
2021/03/20 09:01:57;;;;;;;28.02;16.70;;;12.10;99.90;;;;;;5053649;28;20364;-53
2021/03/20 09:04:31;;;;;;;31.48;18.63;;;12.50;99.90;;;;;;5053669;28;20029;-53
2021/03/20 09:06:59;;;;;;;36.03;24.08;;;;;;;;;;5012499;28;20421;-51
2021/03/20 09:09:25;;;;;;;21.50;14.18;;;;;;;;;;4980772;28;20128;-55
2021/03/20 09:12:19;;;;;;;24.90;14.93;;;12.80;99.90;;;;;;5041001;28;20071;-51
2021/03/20 09:14:47;;;;;;;22.65;15.32;;;12.60;99.90;;;;;;5044505;28;20064;-50
2021/03/20 09:17:22;;;;;;;27.15;16.33;;;;;;;;;;4992445;28;20065;-50
2021/03/20 09:19:56;;;;;;;23.85;15.73;;;13.90;99.90;;;;;;5011615;28;20034;-47
2021/03/20 09:22:25;;;;;;;26.75;16.10;;;;;;;;;;5004106;28;20073;-50
2021/03/20 09:24:51;;;;;;;25.75;16.63;;;;;;;;;;4998077;28;20076;-55
2021/03/20 09:27:54;;;;;;;28.95;17.60;;;15.00;95.40;;;;;;4994397;28;20026;-56
2021/03/20 09:30:29;;;;;;;41.17;20.50;;;15.70;93.70;;;;;;4992506;28;20042;-50
2021/03/20 09:32:55;;;;;;;34.22;21.10;;;15.90;94.10;;;;;;4991638;28;20031;-47
2021/03/20 09:35:47;;;;;;;30.00;20.83;;;;;;;;;;4991910;28;20031;-49
2021/03/20 09:38:13;;;;;;;33.13;19.85;;;;;;;;;;4993503;28;20653;-48
2021/03/20 09:40:44;;;;;;;40.28;24.55;;;17.20;97.40;;;;;;4995478;28;20124;-48
2021/03/20 09:43:18;;;;;;;32.33;19.65;;;17.10;85.70;;;;;;4991747;28;20410;-48
2021/03/20 09:45:43;;;;;;;34.72;22.65;;;16.80;81.80;;;;;;4991655;28;20034;-47
2021/03/20 09:48:10;;;;;;;38.65;24.23;;;;;;;;;;4988366;28;20088;-49
2021/03/20 09:50:37;;;;;;;32.45;20.77;;;16.80;96.30;;;;;;5031228;28;20389;-48
2021/03/20 09:53:03;;;;;;;34.75;21.88;;;;;;;;;;5033118;28;20033;-45
2021/03/20 09:55:28;;;;;;;41.08;27.15;;;16.60;99.90;;;;;;5033140;28;20029;-48
2021/03/20 09:58:03;;;;;;;49.45;26.50;;;16.70;78.10;;;;;;5033654;28;20361;-47
2021/03/20 10:00:47;;;;;;;46.15;28.73;;;;;;;;;;5052267;28;20108;-47
2021/03/20 10:03:40;;;;;;;44.95;29.45;;;;;;;;;;5052875;28;20108;-47
2021/03/20 10:06:21;;;;;;;47.92;28.60;;;16.70;99.90;;;;;;5031005;28;20037;-44
2021/03/20 10:09:03;;;;;;;35.40;24.10;;;16.90;76.80;;;;;;5052747;28;20055;-48
2021/03/20 10:11:29;;;;;;;35.97;23.02;;;17.10;74.40;;;;;;5001290;28;20044;-48
2021/03/20 10:13:54;;;;;;;33.92;20.95;;;16.60;74.80;;;;;;5052969;28;20025;-45
2021/03/20 10:16:24;;;;;;;31.05;19.13;;;16.50;72.60;;;;;;5052635;28;20029;-49
2021/03/20 10:19:11;;;;;;;27.35;16.90;;;16.10;71.00;;;;;;5055004;28;20056;-50
2021/03/20 10:21:37;;;;;;;26.63;15.32;;;15.90;70.80;;;;;;5056684;28;20027;-48
2021/03/20 10:24:26;;;;;;;25.52;15.65;;;;;;;;;;5055096;28;20195;-48
2021/03/20 10:27:06;;;;;;;23.77;15.25;;;;;;;;;;5055469;28;20025;-47
2021/03/20 10:29:38;;;;;;;22.95;13.05;;;15.00;82.10;;;;;;5055387;28;20484;-47
2021/03/20 10:32:06;;;;;;;19.27;11.68;;;;;;;;;;5055316;28;20028;-46
2021/03/20 10:34:47;;;;;;;18.42;11.35;;;15.70;83.70;;;;;;5013052;28;20559;-49
2021/03/20 10:37:14;;;;;;;18.00;11.77;;;15.80;95.20;;;;;;5013039;28;20030;-48
2021/03/20 10:39:45;;;;;;;16.90;10.85;;;16.80;70.90;;;;;;4980312;28;20034;-46
2021/03/20 10:42:23;;;;;;;17.70;11.65;;;16.10;69.80;;;;;;5013100;28;20033;-50
2021/03/20 10:44:55;;;;;;;11.75;7.97;;;16.70;69.50;;;;;;5012910;28;20042;-47
2021/03/20 10:47:32;;;;;;;9.13;6.53;;;;;;;;;;5012861;28;20037;-47
2021/03/20 10:50:01;;;;;;;10.55;6.70;;;15.90;67.50;;;;;;4980056;28;20045;-47
2021/03/20 10:52:32;;;;;;;12.60;7.05;;;15.70;63.60;;;;;;4996144;28;20037;-47
2021/03/20 10:55:04;;;;;;;12.98;7.70;;;15.30;65.60;;;;;;5012741;28;20045;-48
2021/03/20 10:57:32;;;;;;;11.95;7.88;;;15.10;67.20;;;;;;4957325;28;20129;-48
2021/03/20 11:00:01;;;;;;;11.40;7.95;;;;;;;;;;4973637;28;20126;-45
2021/03/20 11:02:32;;;;;;;10.18;6.72;;;16.50;88.40;;;;;;4973391;28;20129;-45
2021/03/20 11:05:21;;;;;;;14.02;8.57;;;16.20;82.10;;;;;;4983543;28;20045;-49
2021/03/20 11:07:54;;;;;;;11.90;7.47;;;15.10;69.90;;;;;;5012578;28;20739;-48
2021/03/20 11:10:26;;;;;;;10.95;7.28;;;;;;;;;;5012505;28;20077;-46
2021/03/20 11:12:53;;;;;;;11.07;6.97;;;14.20;86.40;;;;;;5012334;28;20034;-47
2021/03/20 11:15:28;;;;;;;8.68;6.10;;;13.20;70.60;;;;;;4963368;28;20497;-46
2021/03/20 11:17:55;;;;;;;7.32;5.30;;;13.00;82.40;;;;;;5012199;28;20099;-46
2021/03/20 11:20:47;;;;;;;9.23;5.25;;;13.80;82.00;;;;;;5012275;28;20725;-48
2021/03/20 11:23:34;;;;;;;10.20;6.05;;;14.00;68.40;;;;;;5008714;28;20085;-49
2021/03/20 11:26:40;;;;;;;13.10;7.47;;;13.40;65.30;;;;;;5012226;28;20221;-49
2021/03/20 11:29:08;;;;;;;16.15;8.15;;;;;;;;;;4940111;28;20047;-48
2021/03/20 11:31:46;;;;;;;8.07;5.40;;;14.40;69.40;;;;;;4972760;28;20066;-47
2021/03/20 11:34:39;;;;;;;11.85;7.18;;;14.20;72.40;;;;;;4973165;28;20035;-47
2021/03/20 11:37:10;;;;;;;7.32;4.72;;;;;;;;;;4973028;28;20034;-48
2021/03/20 11:39:36;;;;;;;10.65;6.90;;;;;;;;;;4965058;28;20050;-50
2021/03/20 11:42:09;;;;;;;9.45;5.90;;;15.80;94.20;;;;;;4983530;28;20554;-46
2021/03/20 11:44:42;;;;;;;10.35;6.70;;;;;;;;;;4972792;28;20121;-48
2021/03/20 11:47:17;;;;;;;15.20;7.43;;;;;;;;;;4972833;28;20023;-47
2021/03/20 11:49:47;;;;;;;7.43;5.57;;;14.00;95.30;;;;;;4972699;28;20038;-49
2021/03/20 11:52:46;;;;;;;9.38;6.00;;;14.20;64.60;;;;;;4972582;28;20045;-48
2021/03/20 11:55:27;;;;;;;8.05;5.13;;;14.20;63.50;;;;;;4945614;28;20501;-49
2021/03/20 11:58:00;;;;;;;10.57;6.22;;;14.40;63.90;;;;;;4972712;28;20432;-46
2021/03/20 12:00:34;;;;;;;8.95;6.00;;;14.60;63.30;;;;;;4972566;28;20034;-49
2021/03/20 12:03:03;;;;;;;12.13;6.10;;;15.40;64.00;;;;;;4940820;28;20039;-46
2021/03/20 12:05:37;;;;;;;8.77;6.22;;;15.70;67.70;;;;;;5034830;28;20032;-48
2021/03/20 12:08:29;;;;;;;8.70;5.60;;;;;;;;;;5042309;28;20136;-47
2021/03/20 12:11:10;;;;;;;7.82;5.75;;;14.50;68.10;;;;;;5011768;28;20038;-48
2021/03/20 12:13:43;;;;;;;12.90;5.65;;;14.70;69.20;;;;;;5034221;28;20033;-49
2021/03/20 12:16:21;;;;;;;10.40;6.70;;;;;;;;;;5034569;28;20033;-46
2021/03/20 12:18:47;;;;;;;7.97;5.18;;;15.30;82.70;;;;;;5034242;28;20041;-50
2021/03/20 12:21:13;;;;;;;7.53;5.00;;;;;;;;;;5034407;28;20022;-49
2021/03/20 12:23:53;;;;;;;7.65;4.75;;;;;;;;;;4999798;28;20036;-48
2021/03/20 12:26:22;;;;;;;6.07;4.35;;;;;;;;;;4966974;28;20133;-48
2021/03/20 12:28:48;;;;;;;9.85;6.55;;;13.80;92.50;;;;;;5034031;28;20065;-48
2021/03/20 12:31:14;;;;;;;6.63;4.68;;;14.40;92.70;;;;;;4999688;28;20126;-49
2021/03/20 12:33:44;;;;;;;6.82;4.80;;;;;;;;;;5034326;28;20120;-46
2021/03/20 12:36:23;;;;;;;6.70;3.85;;;14.40;65.60;;;;;;5015615;28;20046;-49
2021/03/20 12:38:49;;;;;;;5.90;3.70;;;13.90;65.80;;;;;;5034090;28;20037;-46
2021/03/20 12:41:21;;;;;;;6.13;3.03;;;13.60;58.00;;;;;;5034139;28;20022;-48
2021/03/20 12:44:05;;;;;;;6.03;4.00;;;13.50;56.30;;;;;;4999071;28;20030;-48
2021/03/20 12:46:32;;;;;;;4.45;3.28;;;13.90;57.50;;;;;;5034197;28;20473;-49
2021/03/20 12:48:58;;;;;;;7.15;4.47;;;13.80;55.70;;;;;;5033894;28;20487;-48
2021/03/20 12:51:24;;;;;;;8.45;4.82;;;13.60;56.70;;;;;;5035994;28;20037;-48
2021/03/20 12:53:50;;;;;;;7.72;4.35;;;;;;;;;;5003144;28;20061;-49
2021/03/20 12:56:17;;;;;;;6.40;3.90;;;14.50;84.20;;;;;;5033904;28;20350;-48
2021/03/20 12:58:43;;;;;;;8.30;4.70;;;;;;;;;;5015090;28;20553;-48
2021/03/20 13:01:09;;;;;;;5.93;3.70;;;;;;;;;;5034171;28;20033;-49
2021/03/20 13:03:35;;;;;;;5.97;3.85;;;;;;;;;;5034186;28;20034;-48
2021/03/20 13:06:02;;;;;;;5.45;3.97;;;13.80;62.80;;;;;;5032275;28;20033;-48
2021/03/20 13:08:28;;;;;;;7.05;3.90;;;13.80;62.00;;;;;;5032240;28;20578;-48
2021/03/20 13:10:54;;;;;;;6.90;4.68;;;13.50;78.70;;;;;;5032419;28;20087;-50
2021/03/20 13:13:20;;;;;;;9.15;4.78;;;;;;;;;;5032613;28;20507;-48
2021/03/20 13:15:47;;;;;;;6.45;4.30;;;13.00;57.00;;;;;;5032383;28;20025;-53
2021/03/20 13:18:13;;;;;;;5.47;4.05;;;13.30;58.60;;;;;;5032133;28;20463;-52
2021/03/20 13:20:40;;;;;;;6.57;4.50;;;13.00;58.90;;;;;;5013634;28;20052;-56
2021/03/20 13:23:06;;;;;;;8.65;4.53;;;;;;;;;;4997434;28;20130;-56
2021/03/20 13:25:34;;;;;;;7.15;4.50;;;;;;;;;;5032385;28;20064;-55
2021/03/20 13:28:00;;;;;;;7.28;4.70;;;;;;;;;;5032178;28;20033;-52
2021/03/20 13:30:28;;;;;;;5.22;3.78;;;;;;;;;;5032029;28;20472;-50
2021/03/20 13:32:55;;;;;;;7.05;4.57;;;13.70;65.20;;;;;;5032245;28;20041;-51
2021/03/20 13:35:23;;;;;;;7.63;4.30;;;;;;;;;;5032304;28;20041;-49